Time;durP1;ratioP1;P1;durP2;ratioP2;P2;SDS_P1;SDS_P2;PMS_P1;PMS_P2;Temp;Humidity;BMP_temperature;BMP_pressure;BME280_temperature;BME280_humidity;BME280_pressure;Samples;Min_cycle;Max_cycle;Signal;HPM_P1;HPM_P2
2022/10/12 00:00:09;;;;;;;10.03;1.43;;;11.50;99.90;;;;;;5032792;28;20029;-70
2022/10/12 00:02:35;;;;;;;0.40;0.40;;;11.50;99.90;;;;;;5031548;28;20026;-72
2022/10/12 00:05:00;;;;;;;0.33;0.33;;;11.50;99.90;;;;;;5032630;28;20037;-70
2022/10/12 00:07:26;;;;;;;0.40;0.40;;;11.50;99.90;;;;;;5044601;28;20094;-70
2022/10/12 00:09:51;;;;;;;2.93;2.20;;;11.60;99.90;;;;;;5048699;28;20029;-70
2022/10/12 00:12:17;;;;;;;1.80;1.70;;;11.60;99.90;;;;;;5052586;28;20106;-70
2022/10/12 00:14:43;;;;;;;1.43;1.13;;;11.70;99.90;;;;;;5051149;28;20140;-70
2022/10/12 00:17:08;;;;;;;1.57;1.47;;;11.70;99.90;;;;;;5052516;28;20033;-70
2022/10/12 00:19:34;;;;;;;0.67;0.67;;;11.60;99.90;;;;;;5052775;28;20460;-70
2022/10/12 00:21:59;;;;;;;1.77;1.47;;;11.60;99.90;;;;;;5052492;28;20048;-70
2022/10/12 00:24:25;;;;;;;0.50;0.50;;;11.60;99.90;;;;;;5052391;28;20060;-70
2022/10/12 00:26:51;;;;;;;1.23;1.13;;;11.50;99.90;;;;;;5051419;28;20033;-71
2022/10/12 00:29:17;;;;;;;1.23;1.17;;;11.50;99.90;;;;;;5051824;28;20025;-70
2022/10/12 00:31:42;;;;;;;2.50;1.07;;;11.70;99.90;;;;;;5051769;28;20029;-69
2022/10/12 00:34:08;;;;;;;0.90;0.90;;;11.30;99.90;;;;;;5050780;28;20029;-70
2022/10/12 00:36:34;;;;;;;0.60;0.60;;;11.30;99.90;;;;;;5050721;28;20411;-71
2022/10/12 00:39:02;;;;;;;0.50;0.50;;;11.20;99.90;;;;;;5052037;28;20441;-71
2022/10/12 00:41:32;;;;;;;1.42;0.80;;;11.20;99.90;;;;;;5052061;28;20428;-69
2022/10/12 00:43:58;;;;;;;0.45;0.45;;;11.10;99.90;;;;;;5049730;28;20032;-70
2022/10/12 00:46:31;;;;;;;0.57;0.57;;;11.10;99.90;;;;;;5051836;28;20138;-70
2022/10/12 00:49:08;;;;;;;0.60;0.60;;;11.00;99.90;;;;;;5052313;28;20029;-71
2022/10/12 00:51:33;;;;;;;0.63;0.63;;;10.90;99.90;;;;;;5052612;28;20487;-70
2022/10/12 00:54:04;;;;;;;0.80;0.80;;;10.90;99.90;;;;;;5052003;28;20278;-70
2022/10/12 00:56:34;;;;;;;0.55;0.55;;;10.80;99.90;;;;;;5051760;28;20562;-71
2022/10/12 00:59:03;;;;;;;0.70;0.70;;;10.80;99.90;;;;;;5049621;28;20082;-70
2022/10/12 01:01:33;;;;;;;2.47;1.42;;;10.80;99.90;;;;;;5051641;28;20086;-68
2022/10/12 01:03:59;;;;;;;0.55;0.55;;;10.70;99.90;;;;;;5033011;28;20061;-69
2022/10/12 01:06:25;;;;;;;0.88;0.88;;;10.70;99.90;;;;;;5011787;28;20053;-69
2022/10/12 01:08:53;;;;;;;3.67;2.13;;;10.70;99.90;;;;;;5010449;28;20088;-70
2022/10/12 01:11:18;;;;;;;1.10;0.98;;;10.70;99.90;;;;;;5011718;28;20026;-69
2022/10/12 01:13:44;;;;;;;1.90;1.53;;;10.70;99.90;;;;;;5010267;28;20041;-69
2022/10/12 01:16:35;;;;;;;1.57;1.47;;;10.60;99.90;;;;;;5014903;28;20055;-70
2022/10/12 01:19:17;;;;;;;1.52;1.42;;;10.60;99.90;;;;;;5040343;28;20538;-70
2022/10/12 01:21:55;;;;;;;0.55;0.55;;;10.60;99.90;;;;;;5031391;28;20029;-71
2022/10/12 01:24:54;;;;;;;1.67;1.58;;;10.60;99.90;;;;;;5031445;28;20026;-70
2022/10/12 01:27:39;;;;;;;0.50;0.50;;;10.50;99.90;;;;;;5031166;28;20362;-69
2022/10/12 01:30:14;;;;;;;0.50;0.50;;;10.30;99.90;;;;;;5031438;28;20040;-71
2022/10/12 01:32:52;;;;;;;1.95;1.48;;;10.50;99.90;;;;;;5031099;28;20080;-71
2022/10/12 01:35:24;;;;;;;2.40;0.85;;;10.50;99.90;;;;;;5049606;28;20440;-70
2022/10/12 01:38:01;;;;;;;0.80;0.80;;;10.50;99.90;;;;;;5050886;28;20049;-69
2022/10/12 01:40:36;;;;;;;0.68;0.68;;;10.40;99.90;;;;;;5051119;28;20045;-69
2022/10/12 01:43:02;;;;;;;0.40;0.40;;;10.40;99.90;;;;;;5050825;28;20033;-70
2022/10/12 01:45:27;;;;;;;0.43;0.43;;;10.40;99.90;;;;;;5050542;28;20106;-70
2022/10/12 01:47:54;;;;;;;4.00;2.60;;;10.30;99.90;;;;;;5050896;28;20377;-69
2022/10/12 01:50:23;;;;;;;1.38;1.25;;;10.30;99.90;;;;;;5050100;28;20033;-69
2022/10/12 01:52:57;;;;;;;2.38;1.55;;;10.40;99.90;;;;;;5049123;28;20089;-69
2022/10/12 01:55:41;;;;;;;37.35;2.25;;;10.30;99.90;;;;;;5051094;28;20420;-70
2022/10/12 01:58:51;;;;;;;1.35;0.95;;;10.30;99.90;;;;;;5050923;28;20116;-70
2022/10/12 02:01:31;;;;;;;0.40;0.40;;;10.20;99.90;;;;;;5047906;28;20083;-70
2022/10/12 02:04:17;;;;;;;1.85;1.08;;;10.10;99.90;;;;;;5022146;28;20044;-69
2022/10/12 02:06:59;;;;;;;1.75;1.63;;;11.20;99.90;;;;;;5015969;28;20038;-70
2022/10/12 02:09:29;;;;;;;0.30;0.30;;;10.00;99.90;;;;;;5010983;28;20053;-69
2022/10/12 02:11:59;;;;;;;0.63;0.63;;;10.00;99.90;;;;;;5010806;28;20101;-70
2022/10/12 02:14:33;;;;;;;1.25;1.02;;;10.20;99.90;;;;;;5010850;28;20042;-70
2022/10/12 02:17:03;;;;;;;1.17;1.13;;;9.80;99.90;;;;;;5010467;28;20042;-69
2022/10/12 02:19:33;;;;;;;0.43;0.43;;;9.60;99.90;;;;;;5010345;28;20034;-69
2022/10/12 02:22:04;;;;;;;0.40;0.40;;;10.50;99.90;;;;;;5010429;28;20033;-70
2022/10/12 02:24:31;;;;;;;0.82;0.82;;;10.20;99.90;;;;;;5016512;28;20053;-69
2022/10/12 02:26:59;;;;;;;0.55;0.55;;;9.80;99.90;;;;;;5031299;28;20075;-69
2022/10/12 02:29:31;;;;;;;0.50;0.50;;;10.50;99.90;;;;;;5030162;28;20365;-69
2022/10/12 02:32:33;;;;;;;0.50;0.50;;;9.40;99.90;;;;;;5030129;28;20452;-70
2022/10/12 02:35:07;;;;;;;0.40;0.40;;;9.60;99.90;;;;;;5030265;28;20029;-70
2022/10/12 02:37:45;;;;;;;0.95;0.95;;;9.90;99.90;;;;;;5029906;28;20030;-69
2022/10/12 02:40:30;;;;;;;0.68;0.68;;;9.80;99.90;;;;;;5030311;28;20510;-69
2022/10/12 02:43:09;;;;;;;0.50;0.50;;;9.80;99.90;;;;;;5046759;28;20071;-71
2022/10/12 02:45:36;;;;;;;1.00;0.77;;;9.80;99.90;;;;;;5050124;28;20096;-69
2022/10/12 02:48:03;;;;;;;;;;;9.80;99.90;;;;;;5048921;28;20107;-69
2022/10/12 02:50:29;;;;;;;0.50;0.50;;;;;;;;;;5050188;28;20421;-68
2022/10/12 02:52:56;;;;;;;1.10;1.10;;;9.20;99.90;;;;;;5049338;28;20021;-68
2022/10/12 02:55:22;;;;;;;1.13;1.10;;;;;;;;;;5031897;28;20053;-69
2022/10/12 02:57:48;;;;;;;0.70;0.70;;;;;;;;;;5049770;28;20486;-70
2022/10/12 03:00:14;;;;;;;0.93;0.93;;;9.00;99.90;;;;;;5048955;28;20527;-71
2022/10/12 03:02:39;;;;;;;2.35;1.73;;;9.70;99.90;;;;;;5049510;28;20029;-70
2022/10/12 03:05:06;;;;;;;0.67;0.67;;;;;;;;;;5011990;28;20313;-69
2022/10/12 03:07:31;;;;;;;0.50;0.45;;;9.70;99.90;;;;;;5009980;28;20089;-69
2022/10/12 03:09:57;;;;;;;0.97;0.97;;;;;;;;;;5010242;28;20088;-69
2022/10/12 03:12:23;;;;;;;1.60;1.50;;;;;;;;;;5010003;28;20022;-70
2022/10/12 03:14:49;;;;;;;2.50;2.30;;;;;;;;;;5008543;28;20271;-68
2022/10/12 03:17:15;;;;;;;0.67;0.67;;;;;;;;;;5049223;28;20426;-70
2022/10/12 03:19:40;;;;;;;0.87;0.87;;;9.40;99.90;;;;;;5049890;28;20045;-70
2022/10/12 03:22:07;;;;;;;1.17;1.07;;;;;;;;;;5049724;28;20025;-70
2022/10/12 03:24:32;;;;;;;0.88;0.88;;;9.60;99.90;;;;;;5049743;28;20425;-69
2022/10/12 03:26:58;;;;;;;5.13;2.80;;;;;;;;;;5049254;28;20021;-69
2022/10/12 03:29:24;;;;;;;0.43;0.43;;;9.70;99.90;;;;;;5049501;28;20040;-70
2022/10/12 03:31:50;;;;;;;0.60;0.60;;;;;;;;;;5049310;28;20037;-69
2022/10/12 03:34:16;;;;;;;0.40;0.40;;;;;;;;;;5048704;28;20025;-70
2022/10/12 03:36:41;;;;;;;0.60;0.57;;;;;;;;;;5049373;28;20097;-72
2022/10/12 03:39:07;;;;;;;0.90;0.90;;;;;;;;;;5045011;28;20047;-69
2022/10/12 03:41:33;;;;;;;3.50;1.93;;;9.90;99.90;;;;;;5030016;28;20112;-70
2022/10/12 03:43:59;;;;;;;3.57;0.87;;;;;;;;;;5029146;28;20361;-70
2022/10/12 03:46:25;;;;;;;1.02;0.95;;;9.40;99.90;;;;;;5029573;28;20116;-70
2022/10/12 03:48:51;;;;;;;1.53;1.43;;;9.40;99.90;;;;;;5029549;28;20117;-69
2022/10/12 03:51:16;;;;;;;0.43;0.43;;;9.60;99.90;;;;;;5048457;28;20028;-70
2022/10/12 03:53:42;;;;;;;1.73;1.63;;;9.60;99.90;;;;;;5047732;28;20556;-70
2022/10/12 03:56:07;;;;;;;0.90;0.90;;;9.40;99.90;;;;;;5047834;28;20029;-69
2022/10/12 03:58:33;;;;;;;2.53;0.93;;;9.30;99.90;;;;;;5049229;28;20029;-70
2022/10/12 04:00:58;;;;;;;2.23;2.13;;;9.30;99.90;;;;;;5049563;28;20040;-70
2022/10/12 04:03:24;;;;;;;1.37;1.17;;;9.30;99.90;;;;;;5040152;28;20440;-69
2022/10/12 04:05:57;;;;;;;0.40;0.40;;;9.30;99.90;;;;;;5011537;28;20203;-71
2022/10/12 04:08:23;;;;;;;1.38;1.23;;;9.30;99.90;;;;;;5012919;28;20026;-69
2022/10/12 04:10:49;;;;;;;0.70;0.70;;;9.30;99.90;;;;;;5013423;28;20393;-71
2022/10/12 04:13:16;;;;;;;0.43;0.43;;;9.30;99.90;;;;;;5012876;28;20038;-70
2022/10/12 04:15:41;;;;;;;1.60;1.52;;;9.20;99.90;;;;;;5012793;28;20049;-69
2022/10/12 04:18:07;;;;;;;0.83;0.80;;;;;;;;;;5011450;28;20386;-70
2022/10/12 04:20:33;;;;;;;0.80;0.80;;;8.80;99.90;;;;;;5011475;28;20120;-70
2022/10/12 04:22:59;;;;;;;3.17;1.07;;;9.10;99.90;;;;;;5014376;28;20427;-70
2022/10/12 04:25:24;;;;;;;0.93;0.93;;;9.30;99.90;;;;;;5032774;28;20466;-70
2022/10/12 04:27:50;;;;;;;1.83;1.73;;;9.10;99.90;;;;;;5032460;28;20045;-70
2022/10/12 04:30:16;;;;;;;1.00;1.00;;;9.20;99.90;;;;;;5032681;28;20048;-70
2022/10/12 04:32:41;;;;;;;0.83;0.83;;;8.90;99.90;;;;;;5032543;28;20029;-69
2022/10/12 04:35:07;;;;;;;0.90;0.90;;;9.40;99.90;;;;;;5032426;28;20052;-70
2022/10/12 04:37:33;;;;;;;0.43;0.43;;;9.70;99.90;;;;;;5032601;28;20058;-69
2022/10/12 04:39:59;;;;;;;1.27;1.20;;;;;;;;;;5031372;28;20077;-70
2022/10/12 04:42:25;;;;;;;1.23;1.13;;;9.20;99.90;;;;;;5030707;28;20018;-69
2022/10/12 04:44:50;;;;;;;0.50;0.50;;;9.20;99.90;;;;;;5040418;28;20098;-70
2022/10/12 04:47:16;;;;;;;0.77;0.77;;;9.10;99.90;;;;;;5034108;28;20038;-70
2022/10/12 04:49:42;;;;;;;1.00;1.00;;;;;;;;;;5032191;28;20120;-68
2022/10/12 04:52:08;;;;;;;1.90;1.80;;;;;;;;;;5030458;28;20025;-70
2022/10/12 04:54:34;;;;;;;1.60;1.50;;;;;;;;;;5032145;28;20037;-69
2022/10/12 04:57:00;;;;;;;0.87;0.87;;;9.30;99.90;;;;;;5032151;28;20285;-69
2022/10/12 04:59:26;;;;;;;0.60;0.60;;;;;;;;;;5051840;28;20037;-69
2022/10/12 05:01:53;;;;;;;1.02;1.02;;;9.70;99.90;;;;;;5051893;28;20128;-70
2022/10/12 05:04:18;;;;;;;0.60;0.60;;;9.60;99.90;;;;;;5027822;28;20113;-69
2022/10/12 05:06:44;;;;;;;0.80;0.80;;;9.60;99.90;;;;;;5011821;28;20044;-70
2022/10/12 05:09:10;;;;;;;0.67;0.67;;;9.20;99.90;;;;;;5011736;28;20042;-70
2022/10/12 05:11:35;;;;;;;1.33;1.27;;;9.20;99.90;;;;;;5011717;28;20036;-70
2022/10/12 05:14:01;;;;;;;0.97;0.97;;;9.20;99.90;;;;;;5014666;28;20500;-69
2022/10/12 05:16:26;;;;;;;1.73;1.63;;;9.20;99.90;;;;;;5049682;28;20082;-69
2022/10/12 05:18:52;;;;;;;0.77;0.77;;;9.30;99.90;;;;;;5051160;28;20104;-71
2022/10/12 05:21:18;;;;;;;0.67;0.67;;;9.20;99.90;;;;;;5049625;28;20048;-70
2022/10/12 05:23:43;;;;;;;1.90;1.80;;;9.20;99.90;;;;;;5051077;28;20083;-70
2022/10/12 05:26:09;;;;;;;1.30;1.30;;;9.20;99.90;;;;;;5051031;28;20041;-70
2022/10/12 05:28:34;;;;;;;2.20;1.83;;;9.20;99.90;;;;;;5051262;28;20047;-69
2022/10/12 05:31:00;;;;;;;1.03;1.03;;;9.30;99.90;;;;;;5050242;28;20059;-70
2022/10/12 05:33:25;;;;;;;0.40;0.40;;;9.30;99.90;;;;;;5049794;28;20036;-69
2022/10/12 05:35:51;;;;;;;0.80;0.80;;;9.30;99.90;;;;;;5051392;28;20048;-69
2022/10/12 05:38:17;;;;;;;2.43;2.30;;;9.40;99.90;;;;;;5051172;28;20075;-69
2022/10/12 05:40:43;;;;;;;0.95;0.95;;;9.40;99.90;;;;;;5049420;28;20037;-69
2022/10/12 05:43:09;;;;;;;1.73;1.63;;;9.50;99.90;;;;;;5050915;28;20033;-69
2022/10/12 05:45:34;;;;;;;1.20;1.13;;;9.50;99.90;;;;;;5050670;28;20575;-69
2022/10/12 05:48:00;;;;;;;2.17;2.00;;;9.60;99.90;;;;;;5049783;28;20040;-70
2022/10/12 05:50:25;;;;;;;0.80;0.80;;;9.70;99.90;;;;;;5050688;28;20035;-69
2022/10/12 05:52:51;;;;;;;0.70;0.70;;;9.80;99.90;;;;;;5050632;28;20060;-70
2022/10/12 05:55:16;;;;;;;1.03;0.77;;;9.90;99.90;;;;;;5046543;28;20087;-71
2022/10/12 05:57:42;;;;;;;0.83;0.83;;;10.00;99.90;;;;;;5028530;28;20029;-70
2022/10/12 06:00:09;;;;;;;5.53;1.60;;;10.10;99.90;;;;;;5050714;28;20037;-71
2022/10/12 06:02:34;;;;;;;1.25;1.20;;;10.20;99.90;;;;;;5050747;28;20107;-70
2022/10/12 06:05:00;;;;;;;0.60;0.60;;;10.40;99.90;;;;;;5031698;28;20496;-70
2022/10/12 06:07:26;;;;;;;0.83;0.83;;;10.40;99.90;;;;;;5030354;28;20109;-70
2022/10/12 06:09:52;;;;;;;0.73;0.73;;;12.80;99.90;;;;;;5030588;28;20044;-69
2022/10/12 06:12:18;;;;;;;1.13;1.03;;;10.70;99.90;;;;;;5028985;28;20383;-68
2022/10/12 06:14:43;;;;;;;2.13;1.83;;;10.80;99.90;;;;;;5030392;28;20452;-70
2022/10/12 06:17:09;;;;;;;0.90;0.90;;;10.90;99.90;;;;;;5028740;28;20365;-70
2022/10/12 06:19:35;;;;;;;0.80;0.80;;;10.90;99.90;;;;;;5030215;28;20184;-69
2022/10/12 06:22:01;;;;;;;0.90;0.90;;;11.20;99.90;;;;;;5030575;28;20033;-69
2022/10/12 06:24:26;;;;;;;9.53;1.63;;;11.00;99.90;;;;;;5030359;28;20106;-69
2022/10/12 06:26:52;;;;;;;2.10;1.60;;;11.30;99.90;;;;;;5030102;28;20516;-70
2022/10/12 06:29:18;;;;;;;0.60;0.60;;;11.40;99.90;;;;;;5029462;28;20034;-70
2022/10/12 06:31:43;;;;;;;1.13;1.03;;;11.50;99.90;;;;;;5028568;28;20033;-71
2022/10/12 06:34:09;;;;;;;3.13;1.77;;;;;;;;;;5029876;28;20029;-70
2022/10/12 06:36:35;;;;;;;1.10;1.10;;;12.10;99.90;;;;;;5028433;28;20053;-70
2022/10/12 06:39:01;;;;;;;1.00;1.00;;;12.00;99.90;;;;;;5029012;28;20041;-70
2022/10/12 06:41:26;;;;;;;8.20;1.47;;;12.00;99.90;;;;;;5029964;28;20033;-70
2022/10/12 06:43:52;;;;;;;7.77;3.83;;;;;;;;;;5028495;28;20033;-70
2022/10/12 06:46:19;;;;;;;0.50;0.50;;;11.80;99.90;;;;;;5029566;28;20140;-70
2022/10/12 06:48:45;;;;;;;0.67;0.67;;;;;;;;;;5028371;28;20185;-72
2022/10/12 06:51:11;;;;;;;1.00;1.00;;;;;;;;;;5029707;28;20042;-72
2022/10/12 06:53:37;;;;;;;2.10;1.53;;;;;;;;;;5029533;28;20025;-71
2022/10/12 06:56:10;;;;;;;0.57;0.57;;;11.90;99.90;;;;;;5030069;28;20267;-69
2022/10/12 06:58:35;;;;;;;1.85;1.52;;;11.60;99.90;;;;;;5029827;28;20040;-71
2022/10/12 07:01:05;;;;;;;2.37;2.17;;;11.80;99.90;;;;;;5029579;28;20037;-71
2022/10/12 07:03:31;;;;;;;0.50;0.50;;;11.70;99.90;;;;;;5029701;28;20040;-71
2022/10/12 07:06:11;;;;;;;0.87;0.87;;;11.80;99.90;;;;;;5031354;28;20030;-70
2022/10/12 07:08:38;;;;;;;1.10;1.05;;;11.90;99.90;;;;;;5037736;28;20692;-70
2022/10/12 07:11:06;;;;;;;0.60;0.60;;;12.00;99.90;;;;;;5028120;28;20021;-70
2022/10/12 07:13:32;;;;;;;1.73;1.08;;;;;;;;;;5034402;28;20040;-70
2022/10/12 07:15:58;;;;;;;4.78;1.58;;;12.30;99.90;;;;;;5048122;28;20055;-71
2022/10/12 07:18:24;;;;;;;0.60;0.60;;;12.00;99.90;;;;;;5049402;28;20041;-70
2022/10/12 07:20:50;;;;;;;0.67;0.67;;;;;;;;;;5049676;28;20119;-71
2022/10/12 07:23:16;;;;;;;0.77;0.65;;;12.10;99.90;;;;;;5049220;28;20065;-70
2022/10/12 07:25:49;;;;;;;1.70;1.60;;;;;;;;;;5049643;28;20064;-71
2022/10/12 07:28:15;;;;;;;2.28;1.50;;;12.40;99.90;;;;;;5048098;28;20033;-70
2022/10/12 07:30:41;;;;;;;1.50;1.40;;;;;;;;;;5048784;28;20025;-70
2022/10/12 07:33:07;;;;;;;3.37;2.70;;;;;;;;;;5049054;28;20104;-70
2022/10/12 07:35:33;;;;;;;1.73;1.63;;;12.30;99.90;;;;;;5048731;28;20262;-69
2022/10/12 07:37:59;;;;;;;13.80;1.53;;;12.60;99.90;;;;;;5048907;28;20040;-70
2022/10/12 07:40:27;;;;;;;1.50;1.40;;;12.60;99.90;;;;;;5052401;28;20503;-71
2022/10/12 07:42:53;;;;;;;1.73;1.63;;;12.60;99.90;;;;;;5052931;28;20037;-71
2022/10/12 07:45:19;;;;;;;1.93;1.77;;;12.60;99.90;;;;;;5051257;28;20045;-71
2022/10/12 07:47:45;;;;;;;0.80;0.80;;;12.60;99.90;;;;;;5050608;28;20495;-71
2022/10/12 07:50:11;;;;;;;1.40;1.27;;;12.70;99.90;;;;;;5052591;28;20029;-70
2022/10/12 07:52:37;;;;;;;1.42;1.33;;;12.70;99.90;;;;;;5052913;28;20488;-71
2022/10/12 07:55:03;;;;;;;1.47;1.23;;;12.80;99.90;;;;;;5052882;28;20095;-70
2022/10/12 07:57:28;;;;;;;1.63;1.50;;;12.90;99.90;;;;;;5052662;28;20114;-70
2022/10/12 07:59:54;;;;;;;3.23;2.80;;;;;;;;;;5052914;28;20422;-71
2022/10/12 08:02:20;;;;;;;0.80;0.80;;;;;;;;;;5052501;28;20037;-71
2022/10/12 08:04:46;;;;;;;1.43;1.33;;;13.30;99.90;;;;;;5028044;28;20033;-71
2022/10/12 08:07:12;;;;;;;1.17;1.07;;;13.10;99.90;;;;;;5032567;28;20041;-70
2022/10/12 08:09:37;;;;;;;0.70;0.70;;;13.60;99.90;;;;;;5032513;28;20469;-70
2022/10/12 08:12:04;;;;;;;0.87;0.87;;;;;;;;;;5032530;28;20108;-72
2022/10/12 08:14:29;;;;;;;0.90;0.90;;;13.70;99.90;;;;;;5030847;28;20048;-71
2022/10/12 08:16:55;;;;;;;1.10;1.10;;;14.40;99.90;;;;;;5033587;28;20497;-72
2022/10/12 08:19:21;;;;;;;0.60;0.60;;;;;;;;;;5032441;28;20033;-70
2022/10/12 08:21:48;;;;;;;1.80;1.60;;;14.80;99.90;;;;;;5039664;28;20033;-71
2022/10/12 08:24:14;;;;;;;2.17;2.05;;;14.80;99.90;;;;;;5052013;28;20052;-70
2022/10/12 08:26:40;;;;;;;1.47;1.30;;;;;;;;;;5051941;28;20630;-71
2022/10/12 08:29:07;;;;;;;0.50;0.50;;;;;;;;;;5051859;28;20020;-69
2022/10/12 08:31:33;;;;;;;0.93;0.93;;;15.80;99.90;;;;;;5051721;28;20250;-69
2022/10/12 08:33:59;;;;;;;2.20;1.02;;;16.70;99.90;;;;;;5051856;28;20502;-71
2022/10/12 08:36:25;;;;;;;0.60;0.60;;;;;;;;;;5051850;28;20526;-70
2022/10/12 08:38:53;;;;;;;0.70;0.70;;;16.50;99.90;;;;;;5050743;28;20033;-69
2022/10/12 08:41:19;;;;;;;1.10;1.10;;;;;;;;;;5051791;28;20082;-70
2022/10/12 08:44:04;;;;;;;0.83;0.77;;;;;;;;;;5051713;28;20033;-69
2022/10/12 08:46:30;;;;;;;3.50;0.93;;;17.30;99.90;;;;;;5051938;28;20310;-69
2022/10/12 08:49:05;;;;;;;0.50;0.50;;;;;;;;;;5051570;28;20044;-68
2022/10/12 08:51:35;;;;;;;0.63;0.60;;;17.60;99.90;;;;;;5051211;28;20099;-69
2022/10/12 08:54:10;;;;;;;1.23;1.20;;;;;;;;;;5051560;28;20589;-70
2022/10/12 08:56:39;;;;;;;1.02;1.02;;;;;;;;;;5050568;28;20060;-69
2022/10/12 08:59:05;;;;;;;0.63;0.63;;;;;;;;;;5051595;28;20021;-70
2022/10/12 09:01:37;;;;;;;0.40;0.40;;;17.10;99.90;;;;;;5051444;28;20102;-70
2022/10/12 09:04:21;;;;;;;0.50;0.50;;;;;;;;;;5031916;28;20432;-71
2022/10/12 09:06:59;;;;;;;0.85;0.85;;;16.80;99.90;;;;;;5011499;28;20393;-71
2022/10/12 09:09:33;;;;;;;0.70;0.70;;;16.80;99.90;;;;;;5011640;28;20481;-70
2022/10/12 09:12:17;;;;;;;0.40;0.40;;;16.60;99.90;;;;;;5013083;28;20109;-71
2022/10/12 09:14:44;;;;;;;0.30;0.30;;;16.70;99.90;;;;;;5031155;28;20053;-71
2022/10/12 09:17:22;;;;;;;1.45;1.35;;;16.80;99.90;;;;;;5031307;28;20068;-72
2022/10/12 09:20:00;;;;;;;0.85;0.85;;;16.90;99.90;;;;;;5031179;28;20132;-71
2022/10/12 09:22:28;;;;;;;0.60;0.60;;;16.90;99.90;;;;;;5031000;28;20045;-70
2022/10/12 09:24:55;;;;;;;0.70;0.70;;;17.20;99.90;;;;;;5031150;28;20322;-72
2022/10/12 09:27:21;;;;;;;1.90;1.80;;;17.00;99.90;;;;;;5035985;28;20399;-72
2022/10/12 09:29:54;;;;;;;1.73;1.10;;;17.00;99.90;;;;;;5042887;28;20024;-71
2022/10/12 09:32:49;;;;;;;1.13;0.93;;;17.00;99.90;;;;;;5050885;28;20505;-72
2022/10/12 09:35:15;;;;;;;2.85;0.85;;;16.90;99.90;;;;;;5050328;28;20528;-71
2022/10/12 09:37:40;;;;;;;1.57;1.47;;;16.80;99.90;;;;;;5050786;28;20111;-72
2022/10/12 09:40:20;;;;;;;0.63;0.60;;;16.80;99.90;;;;;;5050951;28;20033;-72
2022/10/12 09:42:46;;;;;;;0.40;0.40;;;16.70;99.90;;;;;;5050796;28;20029;-72
2022/10/12 09:45:22;;;;;;;7.13;1.73;;;16.80;99.90;;;;;;5049044;28;20041;-71
2022/10/12 09:48:08;;;;;;;0.35;0.35;;;16.80;99.90;;;;;;5049800;28;20029;-71
2022/10/12 09:50:55;;;;;;;0.43;0.43;;;16.90;99.90;;;;;;5051076;28;20425;-73
2022/10/12 09:53:33;;;;;;;0.30;0.30;;;16.90;99.90;;;;;;5040674;28;20032;-71
2022/10/12 09:56:22;;;;;;;5.78;2.50;;;16.80;99.90;;;;;;5028629;28;20039;-69
2022/10/12 09:58:59;;;;;;;0.60;0.60;;;16.60;99.90;;;;;;5030437;28;20029;-70
2022/10/12 10:01:28;;;;;;;0.40;0.40;;;16.60;99.90;;;;;;5030157;28;20124;-68
2022/10/12 10:04:08;;;;;;;0.30;0.30;;;16.90;99.90;;;;;;5035441;28;20119;-67
2022/10/12 10:06:39;;;;;;;2.75;0.60;;;17.10;99.90;;;;;;5045242;28;20106;-68
2022/10/12 10:09:05;;;;;;;1.08;0.88;;;17.50;99.90;;;;;;5028119;28;20033;-68
2022/10/12 10:11:31;;;;;;;0.40;0.40;;;17.80;99.90;;;;;;5029342;28;20041;-68
2022/10/12 10:13:59;;;;;;;0.85;0.85;;;18.10;99.90;;;;;;5029020;28;20313;-68
2022/10/12 10:16:28;;;;;;;2.92;1.13;;;18.40;99.90;;;;;;5029761;28;20546;-68
2022/10/12 10:18:56;;;;;;;2.88;1.45;;;18.70;99.90;;;;;;5029668;28;20436;-68
2022/10/12 10:21:35;;;;;;;0.75;0.75;;;18.70;99.90;;;;;;5033779;28;20033;-68
2022/10/12 10:24:06;;;;;;;0.38;0.38;;;18.90;99.90;;;;;;5029313;28;20088;-68
2022/10/12 10:26:53;;;;;;;2.08;1.23;;;18.70;99.90;;;;;;5029553;28;20095;-68
2022/10/12 10:29:31;;;;;;;0.43;0.43;;;18.60;99.90;;;;;;5030046;28;20025;-67
2022/10/12 10:32:27;;;;;;;;;;;18.80;99.90;;;;;;5030660;28;20029;-67
2022/10/12 10:35:02;;;;;;;0.98;0.50;;;18.90;99.40;;;;;;5028111;28;19909;-68
2022/10/12 10:37:29;;;;;;;0.30;0.30;;;18.40;98.40;;;;;;5026740;28;20044;-68
2022/10/12 10:39:57;;;;;;;0.73;0.73;;;17.80;97.90;;;;;;5028040;28;20040;-67
2022/10/12 10:42:30;;;;;;;0.60;0.60;;;17.30;98.50;;;;;;5025926;28;20040;-68
2022/10/12 10:45:07;;;;;;;0.30;0.30;;;17.00;98.60;;;;;;5017614;28;20049;-67
2022/10/12 10:47:41;;;;;;;0.75;0.75;;;16.90;99.30;;;;;;5024519;28;20084;-66
2022/10/12 10:50:24;;;;;;;0.60;0.60;;;17.20;98.70;;;;;;5021268;28;20044;-66
2022/10/12 10:52:59;;;;;;;1.00;0.82;;;17.20;98.10;;;;;;5026106;28;20037;-66
2022/10/12 10:55:46;;;;;;;0.38;0.38;;;17.30;97.60;;;;;;5006819;28;20112;-66
2022/10/12 10:58:25;;;;;;;0.57;0.57;;;17.20;97.50;;;;;;5026875;28;20033;-67
2022/10/12 11:00:53;;;;;;;0.32;0.32;;;17.00;97.50;;;;;;5025196;28;20029;-67
2022/10/12 11:03:30;;;;;;;0.40;0.40;;;16.60;97.90;;;;;;5027580;28;20036;-68
2022/10/12 11:06:17;;;;;;;0.93;0.93;;;16.50;98.20;;;;;;5025336;28;20448;-67
2022/10/12 11:08:45;;;;;;;0.30;0.30;;;16.30;99.40;;;;;;5026935;28;20113;-67
2022/10/12 11:11:17;;;;;;;0.40;0.40;;;16.10;99.90;;;;;;5028405;28;20037;-66
2022/10/12 11:13:50;;;;;;;0.60;0.60;;;15.90;99.60;;;;;;5029150;28;20033;-67
2022/10/12 11:16:28;;;;;;;0.30;0.30;;;16.20;99.10;;;;;;5032583;28;20404;-66
2022/10/12 11:18:55;;;;;;;;;;;16.50;98.90;;;;;;5032637;28;20427;-67
2022/10/12 11:21:28;;;;;;;0.43;0.43;;;16.80;98.70;;;;;;5027359;28;19952;-67
2022/10/12 11:23:59;;;;;;;0.45;0.45;;;17.00;98.40;;;;;;5032045;28;20079;-66
2022/10/12 11:26:58;;;;;;;0.40;0.40;;;17.20;98.20;;;;;;5030186;28;20033;-65
2022/10/12 11:29:24;;;;;;;0.47;0.47;;;16.90;98.50;;;;;;5029617;28;20080;-66
2022/10/12 11:32:02;;;;;;;0.30;0.30;;;16.60;98.60;;;;;;5027449;28;20586;-65
2022/10/12 11:34:35;;;;;;;4.15;2.05;;;16.40;98.40;;;;;;5012215;28;20047;-65
2022/10/12 11:37:02;;;;;;;0.30;0.30;;;16.10;99.10;;;;;;5022295;28;20512;-66
2022/10/12 11:39:42;;;;;;;0.40;0.40;;;15.90;99.60;;;;;;5031614;28;20045;-66
2022/10/12 11:42:13;;;;;;;0.40;0.40;;;15.70;99.90;;;;;;5032758;28;20112;-66
2022/10/12 11:44:43;;;;;;;0.30;0.30;;;15.50;99.90;;;;;;5032537;28;20045;-67
2022/10/12 11:47:35;;;;;;;0.30;0.30;;;15.50;99.90;;;;;;5050709;28;20025;-66
2022/10/12 11:50:36;;;;;;;0.30;0.30;;;15.40;99.90;;;;;;5036784;28;20044;-65
2022/10/12 11:53:06;;;;;;;0.65;0.65;;;15.30;99.90;;;;;;5031171;28;20550;-65
2022/10/12 11:55:50;;;;;;;0.30;0.30;;;15.10;99.90;;;;;;5032923;28;20034;-66
2022/10/12 11:58:29;;;;;;;0.73;0.73;;;15.00;99.90;;;;;;5032414;28;20033;-65
2022/10/12 12:01:05;;;;;;;0.47;0.47;;;14.90;99.90;;;;;;5032853;28;20533;-65
2022/10/12 12:03:43;;;;;;;8.07;1.83;;;14.80;99.90;;;;;;5033532;28;20039;-65
2022/10/12 12:06:27;;;;;;;0.63;0.63;;;14.80;99.90;;;;;;5032069;28;20037;-66
2022/10/12 12:09:02;;;;;;;0.40;0.40;;;14.70;99.90;;;;;;5032371;28;20021;-66
2022/10/12 12:11:31;;;;;;;0.30;0.30;;;14.70;99.90;;;;;;5027324;28;20026;-65
2022/10/12 12:14:26;;;;;;;0.30;0.30;;;14.60;99.90;;;;;;5019727;28;20125;-65
2022/10/12 12:17:21;;;;;;;1.48;1.38;;;14.60;99.90;;;;;;5029704;28;20037;-66
2022/10/12 12:19:48;;;;;;;0.35;0.35;;;14.50;99.90;;;;;;5027838;28;20382;-66
2022/10/12 12:22:27;;;;;;;1.80;1.70;;;14.50;99.90;;;;;;5032277;28;20041;-66
2022/10/12 12:25:03;;;;;;;0.35;0.35;;;14.50;99.90;;;;;;5031442;28;20156;-66
2022/10/12 12:28:09;;;;;;;3.17;1.00;;;14.50;99.90;;;;;;5030828;28;20041;-64
2022/10/12 12:30:39;;;;;;;0.95;0.95;;;14.50;99.90;;;;;;5007598;28;20497;-68
2022/10/12 12:33:20;;;;;;;0.40;0.40;;;14.40;99.90;;;;;;5030131;28;20124;-66
2022/10/12 12:36:30;;;;;;;0.38;0.38;;;14.50;99.90;;;;;;5031260;28;20140;-66
2022/10/12 12:38:57;;;;;;;7.03;0.60;;;14.50;99.90;;;;;;5005532;28;20133;-66
2022/10/12 12:41:49;;;;;;;0.30;0.30;;;14.60;99.90;;;;;;5011153;28;20098;-67
2022/10/12 12:44:36;;;;;;;1.10;0.95;;;14.50;99.90;;;;;;5011736;28;20338;-68
2022/10/12 12:47:01;;;;;;;0.35;0.35;;;14.60;99.90;;;;;;5011954;28;20037;-68
2022/10/12 12:49:36;;;;;;;0.30;0.30;;;14.60;99.90;;;;;;5012177;28;20539;-67
2022/10/12 12:52:20;;;;;;;0.40;0.40;;;14.70;99.90;;;;;;5027304;28;20034;-67
2022/10/12 12:55:06;;;;;;;0.30;0.30;;;14.70;99.90;;;;;;5028866;28;20030;-68
2022/10/12 12:57:39;;;;;;;0.40;0.40;;;14.80;99.90;;;;;;5032051;28;20112;-68
2022/10/12 13:00:12;;;;;;;0.40;0.40;;;15.00;99.90;;;;;;5030280;28;20017;-68
2022/10/12 13:02:59;;;;;;;0.55;0.55;;;15.00;99.90;;;;;;5015149;28;20156;-67
2022/10/12 13:05:41;;;;;;;0.30;0.30;;;15.10;99.90;;;;;;5017299;28;20550;-64
2022/10/12 13:08:31;;;;;;;0.50;0.50;;;15.00;99.80;;;;;;5020619;28;20428;-64
2022/10/12 13:11:10;;;;;;;0.30;0.30;;;15.00;99.90;;;;;;5030425;28;20033;-64
2022/10/12 13:13:45;;;;;;;0.45;0.45;;;15.00;99.90;;;;;;5031907;28;20032;-64
2022/10/12 13:16:55;;;;;;;0.30;0.30;;;15.00;99.90;;;;;;5031623;28;20088;-65
2022/10/12 13:19:21;;;;;;;0.38;0.38;;;14.90;99.60;;;;;;5029786;28;20915;-64
2022/10/12 13:21:50;;;;;;;0.40;0.40;;;14.80;99.60;;;;;;5030095;28;20135;-64
2022/10/12 13:24:21;;;;;;;8.48;1.30;;;14.70;99.50;;;;;;5031078;28;20044;-63